Time;durP1;ratioP1;P1;durP2;ratioP2;P2;SDS_P1;SDS_P2;PMS_P1;PMS_P2;Temp;Humidity;BMP_temperature;BMP_pressure;BME280_temperature;BME280_humidity;BME280_pressure;Samples;Min_cycle;Max_cycle;Signal;HPM_P1;HPM_P2
2021/03/14 00:02:20;;;;;;;10.32;2.58;;;10.50;99.90;;;;;;5049933;28;20620;-63
2021/03/14 00:04:46;;;;;;;13.32;2.75;;;10.40;99.90;;;;;;5037124;28;20038;-63
2021/03/14 00:07:11;;;;;;;12.27;2.67;;;10.20;99.90;;;;;;5049084;28;20021;-62
2021/03/14 00:09:37;;;;;;;17.02;2.50;;;10.20;99.90;;;;;;5037212;28;20033;-62
2021/03/14 00:12:05;;;;;;;12.93;2.40;;;10.00;99.90;;;;;;5049643;28;20025;-62
2021/03/14 00:14:31;;;;;;;17.90;2.83;;;9.90;99.90;;;;;;5037368;28;20018;-63
2021/03/14 00:16:57;;;;;;;11.98;2.42;;;9.70;99.90;;;;;;5009661;28;20478;-62
2021/03/14 00:19:22;;;;;;;10.02;2.17;;;9.50;99.90;;;;;;5031619;28;20025;-62
2021/03/14 00:21:48;;;;;;;11.07;2.63;;;9.50;99.90;;;;;;5047697;28;20056;-63
2021/03/14 00:24:14;;;;;;;10.35;3.00;;;9.50;99.90;;;;;;5039578;28;20029;-62
2021/03/14 00:26:40;;;;;;;17.50;2.85;;;9.50;99.90;;;;;;5047079;28;20035;-62
2021/03/14 00:29:07;;;;;;;14.70;2.83;;;9.50;99.90;;;;;;5040334;28;20103;-63
2021/03/14 00:31:33;;;;;;;12.95;3.42;;;9.50;99.90;;;;;;5046084;28;20030;-62
2021/03/14 00:33:58;;;;;;;11.93;2.45;;;9.60;99.90;;;;;;5041938;28;20033;-62
2021/03/14 00:36:24;;;;;;;14.35;3.10;;;9.50;99.90;;;;;;5044175;28;20033;-63
2021/03/14 00:38:50;;;;;;;20.60;3.22;;;9.50;99.90;;;;;;5047163;28;20095;-63
2021/03/14 00:41:15;;;;;;;14.40;3.67;;;9.50;99.90;;;;;;5048039;28;20021;-62
2021/03/14 00:43:41;;;;;;;17.17;3.58;;;9.40;99.90;;;;;;5047366;28;20536;-62
2021/03/14 00:46:07;;;;;;;21.27;3.70;;;9.40;99.90;;;;;;5046542;28;20021;-62
2021/03/14 00:48:33;;;;;;;21.45;4.07;;;9.40;99.90;;;;;;5049369;28;20028;-62
2021/03/14 00:50:58;;;;;;;20.40;4.07;;;9.60;99.90;;;;;;5044546;28;20377;-62
2021/03/14 00:53:24;;;;;;;21.67;3.70;;;9.50;99.90;;;;;;5049706;28;20094;-62
2021/03/14 00:55:50;;;;;;;13.05;3.40;;;9.50;99.90;;;;;;5044465;28;20390;-62
2021/03/14 00:58:16;;;;;;;20.95;3.88;;;9.30;99.90;;;;;;5049669;28;20119;-63
2021/03/14 01:00:42;;;;;;;25.85;3.90;;;9.30;99.90;;;;;;5043738;28;20060;-63
2021/03/14 01:03:07;;;;;;;26.52;3.80;;;9.60;99.90;;;;;;5049730;28;20041;-62
2021/03/14 01:05:33;;;;;;;19.13;3.22;;;9.40;99.90;;;;;;5043314;28;20708;-62
2021/03/14 01:07:59;;;;;;;23.58;4.25;;;9.50;99.90;;;;;;5049676;28;20111;-62
2021/03/14 01:10:24;;;;;;;22.63;4.15;;;9.30;99.90;;;;;;5044197;28;20458;-62
2021/03/14 01:12:50;;;;;;;18.75;3.45;;;9.40;99.90;;;;;;5050522;28;20498;-63
2021/03/14 01:15:16;;;;;;;22.52;3.47;;;9.50;99.90;;;;;;5042753;28;20021;-62
2021/03/14 01:17:42;;;;;;;20.60;4.88;;;9.40;99.90;;;;;;5051478;28;20501;-62
2021/03/14 01:20:11;;;;;;;13.48;3.25;;;9.50;99.90;;;;;;5042025;28;20024;-63
2021/03/14 01:22:37;;;;;;;17.30;3.40;;;9.50;99.90;;;;;;5051038;28;20040;-63
2021/03/14 01:25:04;;;;;;;21.55;3.55;;;9.30;99.90;;;;;;5041629;28;20485;-62
2021/03/14 01:27:30;;;;;;;14.57;2.92;;;9.50;99.90;;;;;;5052115;28;20021;-62
2021/03/14 01:29:56;;;;;;;16.88;3.13;;;9.60;99.90;;;;;;5040923;28;20543;-62
2021/03/14 01:32:22;;;;;;;22.85;4.25;;;9.40;99.90;;;;;;5051072;28;20089;-62
2021/03/14 01:34:48;;;;;;;18.55;3.60;;;9.40;99.90;;;;;;5040066;28;20035;-62
2021/03/14 01:37:18;;;;;;;17.25;3.80;;;9.40;99.90;;;;;;5051871;28;20405;-62
2021/03/14 01:39:45;;;;;;;20.50;4.07;;;9.40;99.90;;;;;;5040070;28;20029;-63
2021/03/14 01:42:11;;;;;;;25.15;4.82;;;9.40;99.90;;;;;;5052810;28;20032;-62
2021/03/14 01:44:37;;;;;;;16.60;4.18;;;9.40;99.90;;;;;;5039175;28;20477;-62
2021/03/14 01:47:03;;;;;;;22.05;4.00;;;9.30;99.90;;;;;;5052298;28;20079;-62
2021/03/14 01:49:30;;;;;;;22.40;3.90;;;9.30;99.90;;;;;;5039411;28;20494;-62
2021/03/14 01:51:55;;;;;;;21.95;4.25;;;9.20;99.90;;;;;;5050810;28;20615;-62
2021/03/14 01:54:21;;;;;;;23.95;4.60;;;9.20;99.90;;;;;;5041416;28;20040;-62
2021/03/14 01:56:47;;;;;;;15.27;2.78;;;9.20;99.90;;;;;;5050459;28;20064;-62
2021/03/14 01:59:13;;;;;;;19.65;3.92;;;9.20;99.90;;;;;;5042451;28;20033;-62
2021/03/14 02:01:39;;;;;;;14.32;2.83;;;9.30;99.90;;;;;;5049349;28;20108;-62
2021/03/14 02:04:05;;;;;;;17.13;3.83;;;9.20;99.90;;;;;;5043469;28;20100;-62
2021/03/14 02:06:31;;;;;;;13.98;3.25;;;9.30;99.90;;;;;;5047210;28;20107;-62
2021/03/14 02:08:57;;;;;;;21.88;3.83;;;9.30;99.90;;;;;;5044345;28;20029;-62
2021/03/14 02:11:27;;;;;;;24.50;3.75;;;9.20;99.90;;;;;;5047042;28;20035;-62
2021/03/14 02:13:56;;;;;;;19.60;3.55;;;9.30;99.90;;;;;;5044952;28;20071;-62
2021/03/14 02:16:33;;;;;;;17.58;3.55;;;9.20;99.90;;;;;;5046546;28;20025;-62
2021/03/14 02:19:04;;;;;;;27.48;4.18;;;9.10;99.90;;;;;;5044204;28;20406;-62
2021/03/14 02:21:34;;;;;;;14.43;3.40;;;9.20;99.90;;;;;;5047188;28;20021;-62
2021/03/14 02:24:07;;;;;;;19.77;3.70;;;9.10;99.90;;;;;;5043816;28;20121;-62
2021/03/14 02:26:35;;;;;;;17.58;3.42;;;9.20;99.90;;;;;;5048121;28;20025;-62
2021/03/14 02:29:02;;;;;;;18.05;3.22;;;9.10;99.90;;;;;;5043214;28;20036;-62
2021/03/14 02:31:29;;;;;;;17.75;3.92;;;9.10;99.90;;;;;;5047012;28;20610;-62
2021/03/14 02:33:59;;;;;;;13.57;3.20;;;9.30;99.90;;;;;;5044338;28;20516;-62
2021/03/14 02:36:26;;;;;;;15.27;3.67;;;9.20;99.90;;;;;;5045779;28;20032;-62
2021/03/14 02:38:52;;;;;;;14.75;3.65;;;9.10;99.90;;;;;;5044692;28;20507;-61
2021/03/14 02:41:18;;;;;;;21.77;3.60;;;9.10;99.90;;;;;;5045773;28;20033;-62
2021/03/14 02:43:45;;;;;;;19.20;3.42;;;9.10;99.90;;;;;;5044739;28;20481;-62
2021/03/14 02:46:12;;;;;;;26.10;4.05;;;9.20;99.90;;;;;;5044663;28;20442;-64
2021/03/14 02:48:38;;;;;;;26.75;3.65;;;9.20;99.90;;;;;;5046500;28;20032;-62
2021/03/14 02:51:04;;;;;;;23.38;3.72;;;9.10;99.90;;;;;;5042732;28;20608;-62
2021/03/14 02:53:30;;;;;;;21.02;3.85;;;9.20;99.90;;;;;;5047489;28;20029;-62
2021/03/14 02:55:57;;;;;;;19.02;3.20;;;9.10;99.90;;;;;;5033587;28;20497;-62
2021/03/14 02:58:24;;;;;;;18.23;3.25;;;9.20;99.90;;;;;;5047232;28;20044;-62
2021/03/14 03:00:51;;;;;;;22.40;4.13;;;9.20;99.90;;;;;;5040568;28;20009;-62
2021/03/14 03:03:21;;;;;;;14.88;3.25;;;9.20;99.90;;;;;;5047232;28;20673;-62
2021/03/14 03:05:48;;;;;;;17.13;4.13;;;9.30;99.90;;;;;;5040949;28;20041;-62
2021/03/14 03:08:16;;;;;;;21.40;3.42;;;9.30;99.90;;;;;;5047396;28;20026;-62
2021/03/14 03:10:46;;;;;;;15.73;3.60;;;9.30;99.90;;;;;;5041576;28;20025;-62
2021/03/14 03:13:12;;;;;;;15.43;3.65;;;9.10;99.90;;;;;;5047341;28;20021;-62
2021/03/14 03:15:40;;;;;;;16.88;3.38;;;9.20;99.90;;;;;;5041475;28;20021;-62
2021/03/14 03:18:07;;;;;;;16.77;3.38;;;9.20;99.90;;;;;;5046904;28;20109;-62
2021/03/14 03:20:33;;;;;;;15.00;3.40;;;9.20;99.90;;;;;;5040896;28;20017;-62
2021/03/14 03:22:59;;;;;;;16.77;3.22;;;9.10;99.90;;;;;;5047129;28;20543;-62
2021/03/14 03:25:25;;;;;;;17.85;3.10;;;9.10;99.90;;;;;;5041515;28;20021;-62
2021/03/14 03:27:51;;;;;;;19.13;3.00;;;9.10;99.90;;;;;;5048239;28;20498;-63
2021/03/14 03:30:18;;;;;;;17.17;3.15;;;9.10;99.90;;;;;;5040427;28;20017;-62
2021/03/14 03:32:46;;;;;;;19.27;3.30;;;9.10;99.90;;;;;;5048717;28;20025;-62
2021/03/14 03:35:13;;;;;;;24.17;3.83;;;9.10;99.90;;;;;;5039628;28;20071;-61
2021/03/14 03:37:39;;;;;;;20.20;3.50;;;9.10;99.90;;;;;;5048482;28;20044;-63
2021/03/14 03:40:11;;;;;;;21.23;3.88;;;9.10;99.90;;;;;;5039022;28;20017;-61
2021/03/14 03:42:51;;;;;;;22.92;3.85;;;9.20;99.90;;;;;;5048934;28;20028;-62
2021/03/14 03:45:18;;;;;;;16.92;3.33;;;9.20;99.90;;;;;;5038886;28;20025;-62
2021/03/14 03:47:45;;;;;;;18.65;3.88;;;9.10;99.90;;;;;;5048741;28;20044;-62
2021/03/14 03:50:13;;;;;;;15.82;3.25;;;9.00;99.90;;;;;;5039207;28;20040;-61
2021/03/14 03:52:40;;;;;;;20.35;3.50;;;9.20;99.90;;;;;;5048107;28;20131;-61
2021/03/14 03:55:08;;;;;;;24.10;4.03;;;9.10;99.90;;;;;;5038683;28;20063;-62
2021/03/14 03:57:36;;;;;;;26.38;4.03;;;9.10;99.90;;;;;;5048833;28;20036;-62
2021/03/14 04:00:03;;;;;;;26.42;5.00;;;9.10;99.90;;;;;;5039806;28;20022;-63
2021/03/14 04:02:29;;;;;;;18.83;4.28;;;9.10;99.90;;;;;;5029505;28;20025;-62
2021/03/14 04:04:55;;;;;;;20.10;4.78;;;9.00;99.90;;;;;;5040842;28;20056;-62
2021/03/14 04:07:21;;;;;;;25.33;4.30;;;9.00;99.90;;;;;;5029303;28;20025;-62
2021/03/14 04:09:47;;;;;;;23.33;4.53;;;9.00;99.90;;;;;;5034999;28;20029;-62
2021/03/14 04:12:16;;;;;;;37.10;5.25;;;9.10;99.90;;;;;;5049212;28;20025;-61
2021/03/14 04:14:42;;;;;;;31.00;4.50;;;9.10;99.90;;;;;;5037184;28;20025;-61
2021/03/14 04:17:08;;;;;;;21.70;4.25;;;9.20;99.90;;;;;;5049747;28;20039;-62
2021/03/14 04:19:34;;;;;;;29.15;4.53;;;9.00;99.90;;;;;;5037423;28;20025;-61
2021/03/14 04:22:02;;;;;;;26.52;4.10;;;9.00;99.90;;;;;;5048675;28;20024;-62
2021/03/14 04:24:30;;;;;;;33.85;4.65;;;9.10;99.90;;;;;;5038337;28;20025;-62
2021/03/14 04:26:58;;;;;;;25.00;4.55;;;9.00;99.90;;;;;;5048938;28;20013;-62
2021/03/14 04:29:27;;;;;;;23.42;4.15;;;9.00;99.90;;;;;;5038680;28;20072;-62
2021/03/14 04:31:54;;;;;;;24.95;4.18;;;9.00;99.90;;;;;;5048571;28;20159;-62
2021/03/14 04:34:21;;;;;;;18.77;3.53;;;8.70;99.90;;;;;;5039443;28;20029;-63
2021/03/14 04:36:48;;;;;;;16.80;3.42;;;8.20;99.90;;;;;;5046410;28;20028;-62
2021/03/14 04:39:15;;;;;;;20.27;3.30;;;7.90;99.90;;;;;;5039837;28;20043;-62
2021/03/14 04:41:43;;;;;;;19.38;3.97;;;7.80;99.90;;;;;;5046894;28;20017;-62
2021/03/14 04:44:09;;;;;;;24.45;4.03;;;7.70;99.90;;;;;;5039626;28;20030;-62
2021/03/14 04:46:36;;;;;;;16.20;3.40;;;7.80;99.90;;;;;;5045876;28;20048;-61
2021/03/14 04:49:03;;;;;;;21.23;4.00;;;8.00;99.90;;;;;;5041837;28;20394;-62
2021/03/14 04:51:31;;;;;;;14.77;3.45;;;8.00;99.90;;;;;;5043972;28;20105;-62
2021/03/14 04:53:58;;;;;;;19.95;4.40;;;8.00;99.90;;;;;;5042307;28;20056;-62
2021/03/14 04:56:25;;;;;;;26.33;3.65;;;8.00;99.90;;;;;;5044365;28;20033;-62
2021/03/14 04:58:51;;;;;;;23.40;4.03;;;8.00;99.90;;;;;;5043012;28;20033;-62
2021/03/14 05:01:20;;;;;;;16.80;2.75;;;8.00;99.90;;;;;;5043312;28;20029;-62
2021/03/14 05:03:49;;;;;;;19.40;3.40;;;8.10;99.90;;;;;;5043815;28;20029;-62
2021/03/14 05:06:19;;;;;;;20.67;3.38;;;8.00;99.90;;;;;;5041752;28;20045;-62
2021/03/14 05:08:46;;;;;;;16.77;2.72;;;8.10;99.90;;;;;;5041289;28;20498;-61
2021/03/14 05:11:17;;;;;;;24.42;3.53;;;8.00;99.90;;;;;;5036179;28;20498;-61
2021/03/14 05:13:44;;;;;;;20.27;3.60;;;8.00;99.90;;;;;;5034269;28;20025;-61
2021/03/14 05:16:10;;;;;;;23.45;3.80;;;8.10;99.90;;;;;;5041902;28;20444;-62
2021/03/14 05:18:38;;;;;;;19.02;3.83;;;8.20;99.90;;;;;;5045386;28;20029;-62
2021/03/14 05:21:05;;;;;;;31.20;4.45;;;8.20;99.90;;;;;;5040124;28;20497;-62
2021/03/14 05:23:35;;;;;;;20.95;4.10;;;8.20;99.90;;;;;;5047245;28;20028;-62
2021/03/14 05:26:02;;;;;;;16.73;3.38;;;8.10;99.90;;;;;;5036163;28;20017;-61
2021/03/14 05:28:28;;;;;;;18.75;4.07;;;8.20;99.90;;;;;;5049363;28;20044;-62
2021/03/14 05:30:54;;;;;;;14.40;3.42;;;8.00;99.90;;;;;;5043802;28;20056;-62
2021/03/14 05:33:19;;;;;;;25.27;4.50;;;8.10;99.90;;;;;;5049206;28;20087;-62
2021/03/14 05:35:45;;;;;;;24.95;3.90;;;7.90;99.90;;;;;;5042800;28;20029;-63
2021/03/14 05:38:11;;;;;;;25.50;3.92;;;8.00;99.90;;;;;;5049002;28;20032;-62
2021/03/14 05:40:37;;;;;;;25.10;4.45;;;8.00;99.90;;;;;;5043677;28;20448;-62
2021/03/14 05:43:04;;;;;;;30.02;4.25;;;8.00;99.90;;;;;;5047945;28;20232;-62
2021/03/14 05:45:30;;;;;;;18.50;3.40;;;8.00;99.90;;;;;;5043496;28;20025;-62
2021/03/14 05:47:57;;;;;;;20.20;3.38;;;8.00;99.90;;;;;;5049756;28;20471;-62
2021/03/14 05:50:25;;;;;;;16.42;2.83;;;7.90;99.90;;;;;;5042353;28;20077;-62
2021/03/14 05:52:51;;;;;;;19.20;3.67;;;7.90;99.90;;;;;;5050024;28;20108;-62
2021/03/14 05:55:19;;;;;;;16.42;3.00;;;7.90;99.90;;;;;;5038502;28;20147;-62
2021/03/14 05:57:47;;;;;;;22.13;3.25;;;7.90;99.90;;;;;;5032103;28;20120;-62
2021/03/14 06:00:15;;;;;;;16.10;4.10;;;7.90;99.90;;;;;;5032154;28;20017;-63
2021/03/14 06:02:44;;;;;;;12.07;2.75;;;8.30;99.90;;;;;;5032410;28;20033;-63
2021/03/14 06:05:13;;;;;;;16.52;3.47;;;8.10;99.90;;;;;;5032652;28;20045;-63
2021/03/14 06:07:39;;;;;;;16.95;2.60;;;7.90;99.90;;;;;;5030441;28;20025;-63
2021/03/14 06:10:06;;;;;;;18.23;2.90;;;7.90;99.90;;;;;;5030378;28;20033;-63
2021/03/14 06:12:32;;;;;;;15.25;2.50;;;7.90;99.90;;;;;;5030660;28;20621;-63
2021/03/14 06:14:59;;;;;;;17.33;3.22;;;7.90;99.90;;;;;;5034782;28;20056;-63
2021/03/14 06:17:27;;;;;;;17.35;3.58;;;7.80;99.90;;;;;;5031193;28;20128;-63
2021/03/14 06:19:53;;;;;;;17.40;3.33;;;7.80;99.90;;;;;;5034644;28;20021;-63
2021/03/14 06:22:25;;;;;;;17.17;2.95;;;7.80;99.90;;;;;;5030229;28;20472;-63
2021/03/14 06:24:52;;;;;;;16.48;2.90;;;7.90;99.90;;;;;;5033751;28;20131;-63
2021/03/14 06:27:38;;;;;;;16.65;3.40;;;7.70;99.90;;;;;;5034079;28;20122;-63
2021/03/14 06:30:10;;;;;;;24.73;3.10;;;7.80;99.90;;;;;;5035098;28;20033;-63
2021/03/14 06:32:36;;;;;;;17.05;3.10;;;7.70;99.90;;;;;;5028908;28;20120;-63
2021/03/14 06:35:19;;;;;;;18.02;3.22;;;7.70;99.90;;;;;;5036281;28;20029;-63
2021/03/14 06:37:44;;;;;;;19.38;3.28;;;7.70;99.90;;;;;;5029271;28;20034;-63
2021/03/14 06:40:15;;;;;;;21.23;3.05;;;7.70;99.90;;;;;;5032058;28;20028;-63
2021/03/14 06:42:43;;;;;;;25.17;3.28;;;7.70;99.90;;;;;;5028006;28;20051;-63
2021/03/14 06:45:11;;;;;;;16.23;4.00;;;7.70;99.90;;;;;;5032056;28;20017;-63
2021/03/14 06:47:48;;;;;;;18.33;3.80;;;7.80;99.90;;;;;;5030666;28;20620;-63
2021/03/14 06:50:18;;;;;;;15.20;2.85;;;7.80;99.90;;;;;;5035224;28;20067;-63
2021/03/14 06:53:09;;;;;;;17.63;3.40;;;7.70;99.90;;;;;;5028633;28;20099;-63
2021/03/14 06:55:35;;;;;;;17.65;3.25;;;7.80;99.90;;;;;;5042107;28;20025;-63
2021/03/14 06:58:25;;;;;;;15.52;3.05;;;7.80;99.90;;;;;;5047734;28;20037;-63
2021/03/14 07:01:15;;;;;;;18.38;3.22;;;7.80;99.90;;;;;;5038583;28;20025;-63
2021/03/14 07:03:47;;;;;;;27.45;3.72;;;7.80;99.90;;;;;;5036294;28;20397;-63
2021/03/14 07:06:22;;;;;;;22.38;3.60;;;7.90;99.90;;;;;;5043067;28;20048;-63
2021/03/14 07:08:53;;;;;;;20.42;3.15;;;7.90;99.90;;;;;;5045077;28;20035;-61
2021/03/14 07:11:42;;;;;;;25.85;3.72;;;8.10;99.90;;;;;;5029961;28;20648;-62
2021/03/14 07:14:15;;;;;;;21.25;3.83;;;7.90;99.90;;;;;;5035863;28;20037;-62
2021/03/14 07:16:42;;;;;;;14.75;3.13;;;8.10;99.90;;;;;;5047645;28;20475;-62
2021/03/14 07:19:08;;;;;;;20.63;3.38;;;8.00;99.90;;;;;;5042640;28;20026;-62
2021/03/14 07:21:34;;;;;;;16.98;3.35;;;8.20;99.90;;;;;;5045737;28;20084;-62
2021/03/14 07:24:00;;;;;;;13.77;2.92;;;8.10;99.90;;;;;;5043415;28;20022;-62
2021/03/14 07:26:46;;;;;;;19.42;3.50;;;8.10;99.90;;;;;;5045240;28;20414;-62
2021/03/14 07:29:13;;;;;;;13.63;2.90;;;8.10;99.90;;;;;;5035029;28;20143;-62
2021/03/14 07:31:39;;;;;;;22.55;3.63;;;8.10;99.90;;;;;;5046986;28;20056;-62
2021/03/14 07:34:05;;;;;;;23.75;3.40;;;8.20;99.90;;;;;;5042728;28;20065;-62
2021/03/14 07:36:31;;;;;;;11.60;2.35;;;8.20;99.90;;;;;;5044753;28;20017;-62
2021/03/14 07:38:58;;;;;;;15.75;3.28;;;8.20;99.90;;;;;;5043706;28;20038;-61
2021/03/14 07:41:26;;;;;;;11.40;2.78;;;8.30;99.90;;;;;;5044718;28;20111;-62
2021/03/14 07:43:53;;;;;;;11.43;3.22;;;8.30;99.90;;;;;;5040751;28;20029;-62
2021/03/14 07:46:23;;;;;;;23.92;3.13;;;8.20;99.90;;;;;;5030350;28;20494;-62
2021/03/14 07:48:51;;;;;;;14.93;3.40;;;8.20;99.90;;;;;;5033619;28;20033;-62
2021/03/14 07:51:20;;;;;;;18.25;2.30;;;8.20;99.90;;;;;;5028996;28;20013;-62
2021/03/14 07:53:46;;;;;;;16.58;3.15;;;8.20;99.90;;;;;;5037113;28;20033;-62
2021/03/14 07:56:12;;;;;;;12.25;3.28;;;8.20;99.90;;;;;;5042445;28;20021;-62
2021/03/14 07:58:38;;;;;;;14.02;2.78;;;8.30;99.90;;;;;;5045555;28;20426;-62
2021/03/14 08:01:26;;;;;;;19.33;3.33;;;8.20;99.90;;;;;;5037550;28;20037;-61
2021/03/14 08:03:52;;;;;;;18.30;2.70;;;8.40;99.90;;;;;;5031129;28;20104;-61
2021/03/14 08:06:37;;;;;;;21.17;3.63;;;8.40;99.90;;;;;;5028193;28;20535;-61
2021/03/14 08:09:02;;;;;;;16.63;2.85;;;8.20;99.90;;;;;;5029492;28;20485;-62
2021/03/14 08:11:28;;;;;;;14.80;2.92;;;8.20;99.90;;;;;;5028800;28;20040;-62
2021/03/14 08:13:54;;;;;;;15.63;3.28;;;8.20;99.90;;;;;;5034216;28;20421;-61
2021/03/14 08:16:20;;;;;;;18.52;3.33;;;8.20;99.90;;;;;;5029698;28;20043;-62
2021/03/14 08:18:48;;;;;;;14.77;3.13;;;8.30;99.90;;;;;;5031886;28;20547;-63
2021/03/14 08:21:19;;;;;;;12.98;2.95;;;8.10;99.90;;;;;;5025979;28;20018;-62
2021/03/14 08:23:47;;;;;;;21.45;3.72;;;8.10;99.90;;;;;;5031729;28;20029;-63
2021/03/14 08:26:33;;;;;;;17.50;3.25;;;8.20;99.90;;;;;;5026676;28;20080;-62
2021/03/14 08:29:03;;;;;;;20.20;4.35;;;8.20;99.90;;;;;;5033257;28;20104;-63
2021/03/14 08:31:43;;;;;;;28.92;3.90;;;8.20;99.90;;;;;;5034509;28;20588;-62
2021/03/14 08:34:25;;;;;;;15.85;3.55;;;8.20;99.90;;;;;;5033941;28;20371;-62
2021/03/14 08:36:52;;;;;;;18.33;3.22;;;8.30;99.90;;;;;;5026247;28;20037;-63
2021/03/14 08:39:22;;;;;;;19.10;4.47;;;8.10;99.90;;;;;;5030612;28;20092;-62
2021/03/14 08:41:58;;;;;;;24.58;2.95;;;8.10;99.90;;;;;;5030270;28;20060;-63
2021/03/14 08:44:43;;;;;;;16.73;3.55;;;8.00;99.90;;;;;;5028057;28;20053;-62
2021/03/14 08:47:16;;;;;;;20.90;3.80;;;8.10;99.90;;;;;;5028012;28;20030;-63
2021/03/14 08:49:50;;;;;;;21.25;3.38;;;8.10;99.90;;;;;;5031058;28;20556;-62
2021/03/14 08:52:17;;;;;;;19.90;4.20;;;8.20;99.90;;;;;;5026656;28;20536;-62
2021/03/14 08:54:45;;;;;;;22.48;3.83;;;8.20;99.90;;;;;;5030220;28;20025;-62
2021/03/14 08:57:16;;;;;;;18.15;3.42;;;8.20;99.90;;;;;;5028054;28;20018;-62
2021/03/14 08:59:57;;;;;;;24.50;4.45;;;8.30;99.90;;;;;;5038203;28;20517;-63
2021/03/14 09:02:25;;;;;;;15.95;3.85;;;8.30;99.90;;;;;;5046433;28;20032;-63
2021/03/14 09:04:52;;;;;;;27.08;4.22;;;8.30;99.90;;;;;;5036903;28;20554;-62
2021/03/14 09:07:19;;;;;;;20.23;4.22;;;8.50;99.90;;;;;;5032101;28;20037;-63
2021/03/14 09:09:45;;;;;;;19.25;3.72;;;8.50;99.90;;;;;;5037769;28;20441;-62
2021/03/14 09:12:13;;;;;;;18.63;3.70;;;8.60;99.90;;;;;;5051992;28;20055;-63
2021/03/14 09:14:43;;;;;;;22.88;3.50;;;8.70;99.90;;;;;;5039429;28;20087;-62
2021/03/14 09:17:10;;;;;;;16.90;2.88;;;8.90;99.90;;;;;;5012818;28;20656;-62
2021/03/14 09:19:37;;;;;;;18.38;3.53;;;9.20;99.90;;;;;;5035089;28;20037;-62
2021/03/14 09:22:06;;;;;;;19.58;3.17;;;9.20;99.90;;;;;;5051788;28;20025;-62
2021/03/14 09:24:38;;;;;;;15.05;3.15;;;9.00;99.90;;;;;;5041551;28;20030;-62
2021/03/14 09:27:05;;;;;;;22.27;3.55;;;9.00;99.90;;;;;;5052675;28;20028;-61
2021/03/14 09:29:35;;;;;;;16.33;3.55;;;8.90;99.90;;;;;;5041407;28;20037;-62
2021/03/14 09:32:17;;;;;;;20.33;3.05;;;8.90;99.90;;;;;;5052066;28;20039;-62
2021/03/14 09:34:43;;;;;;;20.67;3.67;;;9.10;99.90;;;;;;5040031;28;20502;-63
2021/03/14 09:37:09;;;;;;;18.40;3.63;;;9.10;99.90;;;;;;5020506;28;20033;-62
2021/03/14 09:39:35;;;;;;;18.08;2.80;;;9.20;99.90;;;;;;5035101;28;20025;-63
2021/03/14 09:42:00;;;;;;;15.07;3.15;;;9.30;99.90;;;;;;5032251;28;20024;-62
2021/03/14 09:44:26;;;;;;;13.85;2.38;;;9.30;99.90;;;;;;5039069;28;20036;-62
2021/03/14 09:46:56;;;;;;;12.80;3.30;;;9.40;99.90;;;;;;5036389;28;20116;-62
2021/03/14 09:49:22;;;;;;;21.17;4.05;;;9.50;99.90;;;;;;5031067;28;20021;-62
2021/03/14 09:51:53;;;;;;;17.52;3.65;;;9.40;99.90;;;;;;5029975;28;20021;-62
2021/03/14 09:54:19;;;;;;;19.27;3.50;;;9.30;99.90;;;;;;5025977;28;20048;-61
2021/03/14 09:56:55;;;;;;;19.02;2.75;;;9.20;99.90;;;;;;5031388;28;20026;-61
2021/03/14 09:59:25;;;;;;;;;;;9.10;99.90;;;;;;5036183;28;20461;-62
2021/03/14 10:01:52;;;;;;;14.18;2.42;;;9.10;99.90;;;;;;5045606;28;19960;-62
2021/03/14 10:04:19;;;;;;;16.20;2.33;;;8.80;99.90;;;;;;5035610;28;20029;-63
2021/03/14 10:06:46;;;;;;;13.18;2.17;;;8.60;99.90;;;;;;5037919;28;20060;-61
2021/03/14 10:09:26;;;;;;;10.52;2.03;;;8.40;99.90;;;;;;5036522;28;20017;-61
2021/03/14 10:11:54;;;;;;;18.20;2.65;;;8.00;99.90;;;;;;5050061;28;20053;-63
2021/03/14 10:14:21;;;;;;;8.98;2.03;;;7.80;99.90;;;;;;5039280;28;20022;-61
2021/03/14 10:16:51;;;;;;;8.15;1.70;;;7.80;99.90;;;;;;5047202;28;20067;-62
2021/03/14 10:19:17;;;;;;;7.82;1.52;;;7.70;99.90;;;;;;5037602;28;20659;-62
2021/03/14 10:21:47;;;;;;;7.45;2.00;;;7.70;99.90;;;;;;5027181;28;20547;-63
2021/03/14 10:24:20;;;;;;;13.38;1.90;;;7.70;99.90;;;;;;5035724;28;20741;-61
2021/03/14 10:27:04;;;;;;;5.72;1.63;;;7.60;99.90;;;;;;5050709;28;20603;-62
2021/03/14 10:29:39;;;;;;;9.25;2.30;;;7.40;99.90;;;;;;5040087;28;20450;-62
2021/03/14 10:32:27;;;;;;;12.25;1.65;;;7.30;99.90;;;;;;5050694;28;20377;-62
2021/03/14 10:34:56;;;;;;;11.95;2.45;;;7.20;99.90;;;;;;5038835;28;20033;-63
2021/03/14 10:37:26;;;;;;;3.58;1.30;;;7.20;99.90;;;;;;5034797;28;20040;-62
2021/03/14 10:40:26;;;;;;;6.38;1.30;;;7.10;99.90;;;;;;5034367;28;20048;-62
2021/03/14 10:42:52;;;;;;;3.42;1.30;;;7.30;99.90;;;;;;5008313;28;20045;-61
2021/03/14 10:45:23;;;;;;;8.73;1.85;;;7.40;99.90;;;;;;5032045;28;20033;-62
2021/03/14 10:48:03;;;;;;;7.15;1.67;;;7.70;99.90;;;;;;5030801;28;20104;-62
2021/03/14 10:50:31;;;;;;;3.97;1.35;;;7.80;99.90;;;;;;5032602;28;20021;-62
2021/03/14 10:53:08;;;;;;;4.55;1.50;;;7.90;99.90;;;;;;5031627;28;20013;-62
2021/03/14 10:55:35;;;;;;;3.83;1.30;;;8.00;99.90;;;;;;5035688;28;20045;-61
2021/03/14 10:58:18;;;;;;;6.68;1.67;;;8.20;99.90;;;;;;5031908;28;20026;-62
2021/03/14 11:00:46;;;;;;;6.25;1.75;;;8.00;99.90;;;;;;5036817;28;20125;-62
2021/03/14 11:03:40;;;;;;;6.10;2.00;;;8.00;99.90;;;;;;5032209;28;20463;-62
2021/03/14 11:06:10;;;;;;;7.72;1.52;;;8.20;99.90;;;;;;5028221;28;20096;-63
2021/03/14 11:08:53;;;;;;;8.43;1.73;;;8.20;99.90;;;;;;5035623;28;20607;-62
2021/03/14 11:11:26;;;;;;;4.82;1.67;;;8.50;99.90;;;;;;5037311;28;20013;-62
2021/03/14 11:13:53;;;;;;;7.20;1.50;;;8.90;99.90;;;;;;5044976;28;20490;-62
2021/03/14 11:16:24;;;;;;;5.55;1.60;;;8.80;99.90;;;;;;5044010;28;20556;-62
2021/03/14 11:19:01;;;;;;;5.97;1.30;;;8.80;99.90;;;;;;5044106;28;20064;-62
2021/03/14 11:21:27;;;;;;;10.75;1.58;;;8.70;99.90;;;;;;5027571;28;20021;-62
2021/03/14 11:23:53;;;;;;;8.27;1.77;;;8.70;99.90;;;;;;5034103;28;20401;-62
2021/03/14 11:26:18;;;;;;;14.75;2.35;;;8.50;99.90;;;;;;5030089;28;20454;-63
2021/03/14 11:28:48;;;;;;;3.33;1.05;;;8.50;99.90;;;;;;5032126;28;20465;-63
2021/03/14 11:31:14;;;;;;;4.10;1.02;;;8.40;99.90;;;;;;5029074;28;20505;-63
2021/03/14 11:33:40;;;;;;;5.22;1.30;;;8.30;99.90;;;;;;5031664;28;20026;-63
2021/03/14 11:36:06;;;;;;;4.60;1.40;;;8.10;99.90;;;;;;5028997;28;20125;-62
2021/03/14 11:38:33;;;;;;;4.00;1.58;;;8.20;99.90;;;;;;5029116;28;20033;-62
2021/03/14 11:40:59;;;;;;;7.15;2.00;;;8.20;99.90;;;;;;5029932;28;20394;-62
2021/03/14 11:43:25;;;;;;;4.80;1.88;;;8.30;99.90;;;;;;5028730;28;20067;-62
2021/03/14 11:45:51;;;;;;;4.43;1.42;;;8.50;99.90;;;;;;5029762;28;20017;-62
2021/03/14 11:48:20;;;;;;;2.65;1.20;;;8.40;99.90;;;;;;5031451;28;20052;-62
2021/03/14 11:50:45;;;;;;;3.13;1.40;;;8.70;99.90;;;;;;5039799;28;20396;-62
2021/03/14 11:53:11;;;;;;;3.58;1.02;;;8.60;99.90;;;;;;5033401;28;20029;-62
2021/03/14 11:55:37;;;;;;;2.63;1.58;;;8.50;99.90;;;;;;5028259;28;20126;-63
2021/03/14 11:58:02;;;;;;;4.43;1.77;;;8.50;99.90;;;;;;5024122;28;20060;-63
2021/03/14 12:00:28;;;;;;;3.58;2.00;;;8.70;99.90;;;;;;5040035;28;20420;-63
2021/03/14 12:02:54;;;;;;;3.63;1.60;;;8.50;99.90;;;;;;5048105;28;20114;-63
2021/03/14 12:05:20;;;;;;;2.95;0.77;;;8.60;99.90;;;;;;5037941;28;20067;-62
2021/03/14 12:07:46;;;;;;;5.07;1.08;;;8.90;99.90;;;;;;5048360;28;20035;-62
2021/03/14 12:10:12;;;;;;;3.85;0.80;;;9.20;99.90;;;;;;5038391;28;20021;-62
2021/03/14 12:12:38;;;;;;;3.63;0.80;;;9.30;99.90;;;;;;5049153;28;20109;-61
2021/03/14 12:15:04;;;;;;;4.22;1.45;;;10.00;99.90;;;;;;5037687;28;20104;-62
2021/03/14 12:17:30;;;;;;;2.60;0.82;;;10.70;99.90;;;;;;5049251;28;20032;-62
2021/03/14 12:19:56;;;;;;;2.53;0.55;;;11.10;99.90;;;;;;5036542;28;20033;-62
2021/03/14 12:22:22;;;;;;;2.85;0.98;;;10.80;99.90;;;;;;5028448;28;20462;-62
2021/03/14 12:24:47;;;;;;;4.38;0.90;;;11.20;99.90;;;;;;5035192;28;20087;-62
2021/03/14 12:27:13;;;;;;;6.38;1.10;;;11.50;99.90;;;;;;5049425;28;20025;-61
2021/03/14 12:29:39;;;;;;;4.03;1.08;;;11.70;99.90;;;;;;5035915;28;20037;-63
2021/03/14 12:32:05;;;;;;;11.27;1.60;;;11.60;99.90;;;;;;5048406;28;20099;-61
2021/03/14 12:34:31;;;;;;;4.50;1.60;;;11.80;99.90;;;;;;5034556;28;20056;-62
2021/03/14 12:36:57;;;;;;;4.82;1.52;;;12.50;99.90;;;;;;5046685;28;20032;-63
2021/03/14 12:39:23;;;;;;;7.18;2.10;;;12.20;99.90;;;;;;5036748;28;20049;-62
2021/03/14 12:41:48;;;;;;;5.10;1.38;;;12.60;99.90;;;;;;5022833;28;20025;-62
2021/03/14 12:44:14;;;;;;;5.13;1.48;;;12.70;99.90;;;;;;5034303;28;20045;-62
2021/03/14 12:46:40;;;;;;;4.93;1.27;;;12.30;99.90;;;;;;5040675;28;20032;-63
2021/03/14 12:49:06;;;;;;;4.03;1.23;;;12.80;99.90;;;;;;5037738;28;20045;-62
2021/03/14 12:51:31;;;;;;;4.32;1.55;;;12.80;99.90;;;;;;5029164;28;20025;-62
2021/03/14 12:53:57;;;;;;;5.53;0.90;;;12.80;99.90;;;;;;5033173;28;20394;-62
2021/03/14 12:56:24;;;;;;;4.63;1.17;;;11.90;99.90;;;;;;5035449;28;20517;-62